createdAt,value
2019-03-09T00:04:46.207Z,98804.11
2019-03-09T00:10:08.587Z,98787.63
2019-03-09T00:15:29.942Z,98800.56
2019-03-09T00:20:51.977Z,98812.25
2019-03-09T00:26:43.345Z,98797.92
2019-03-09T00:32:08.872Z,98814.78
2019-03-09T00:37:30.375Z,98792.89
2019-03-09T00:42:52.691Z,98792.11
2019-03-09T00:48:13.809Z,98779.69
2019-03-09T00:53:34.796Z,98777.75
2019-03-09T00:58:56.146Z,98782.00
2019-03-09T01:04:18.475Z,98782.78
2019-03-09T01:09:39.923Z,98777.14
2019-03-09T01:15:01.157Z,98769.00
2019-03-09T01:20:22.278Z,98770.39
2019-03-09T01:25:43.211Z,98766.72
2019-03-09T01:31:04.745Z,98763.32
2019-03-09T01:36:26.176Z,98766.28
2019-03-09T01:41:46.975Z,98770.14
2019-03-09T01:47:08.911Z,98780.64
2019-03-09T01:52:31.454Z,98775.82
2019-03-09T01:57:53.044Z,98784.48
2019-03-09T02:03:15.734Z,98789.22
2019-03-09T02:08:36.887Z,98799.88
2019-03-09T02:13:59.310Z,98798.09
2019-03-09T02:19:20.503Z,98807.75
2019-03-09T02:24:45.241Z,98806.67
2019-03-09T02:30:11.034Z,98814.64
2019-03-09T02:35:32.169Z,98822.14
2019-03-09T02:40:54.402Z,98822.14
2019-03-09T02:46:16.048Z,98816.03
2019-03-09T02:51:43.182Z,98813.89
2019-03-09T02:57:04.849Z,98820.58
2019-03-09T03:02:46.448Z,98824.47
2019-03-09T03:08:07.995Z,98826.95
2019-03-09T03:13:31.425Z,98829.84
2019-03-09T03:18:52.875Z,98827.50
2019-03-09T03:24:14.422Z,98838.68
2019-03-09T03:29:35.684Z,98846.53
2019-03-09T03:34:57.011Z,98841.09
2019-03-09T03:40:17.828Z,98844.86
2019-03-09T03:45:39.155Z,98843.25
2019-03-09T03:51:00.252Z,98839.92
2019-03-09T03:56:22.434Z,98844.47
2019-03-09T04:01:43.978Z,98859.23
2019-03-09T04:07:05.778Z,98848.52
2019-03-09T04:12:27.392Z,98844.87
2019-03-09T04:17:49.026Z,98845.53
2019-03-09T04:23:10.979Z,98842.09
2019-03-09T04:28:32.291Z,98848.27
2019-03-09T04:33:53.268Z,98850.44
2019-03-09T04:39:16.749Z,98851.86
2019-03-09T04:44:38.792Z,98860.41
2019-03-09T04:50:00.374Z,98862.84
2019-03-09T04:55:22.415Z,98865.12
2019-03-09T05:00:43.377Z,98860.36
2019-03-09T05:06:05.188Z,98867.85
2019-03-09T05:11:33.271Z,98859.85
2019-03-09T05:16:54.117Z,98848.08
2019-03-09T05:22:15.734Z,98880.49
2019-03-09T05:27:38.519Z,98884.97
2019-03-09T05:33:00.028Z,98886.97
2019-03-09T05:38:22.311Z,98904.45
2019-03-09T05:43:43.689Z,98915.17
2019-03-09T05:49:05.665Z,98912.40
2019-03-09T05:54:28.950Z,98925.27
2019-03-09T05:59:50.096Z,98926.91
2019-03-09T06:05:33.623Z,98934.21
2019-03-09T06:10:57.670Z,98932.50
2019-03-09T06:16:19.363Z,98927.88
2019-03-09T06:21:40.265Z,98942.82
2019-03-09T06:27:01.548Z,98942.41
2019-03-09T06:32:58.910Z,98932.68
2019-03-09T06:38:53.652Z,98935.05
2019-03-09T06:44:15.920Z,98940.67
2019-03-09T06:49:37.622Z,98948.04
2019-03-09T06:55:00.902Z,98939.80
2019-03-09T07:00:31.044Z,98940.30
2019-03-09T07:05:52.214Z,98953.23
2019-03-09T07:11:13.526Z,98944.34
2019-03-09T07:16:35.036Z,98934.11
2019-03-09T07:21:56.548Z,98942.59
2019-03-09T07:27:18.115Z,98932.64
2019-03-09T07:32:39.839Z,98933.80
2019-03-09T07:38:01.240Z,98927.73
2019-03-09T07:43:22.416Z,98930.34
2019-03-09T07:48:43.262Z,98919.83
2019-03-09T07:54:04.793Z,98908.14
2019-03-09T07:59:26.222Z,98905.83
2019-03-09T08:04:47.452Z,98905.34
2019-03-09T08:10:10.801Z,98908.83
2019-03-09T08:15:31.892Z,98907.62
2019-03-09T08:20:53.160Z,98907.97
2019-03-09T08:26:14.168Z,98915.49
2019-03-09T08:31:35.358Z,98899.48
2019-03-09T08:36:56.448Z,98907.58
2019-03-09T08:42:17.569Z,98906.75
2019-03-09T08:47:38.873Z,98896.78
2019-03-09T08:53:00.836Z,98900.95
2019-03-09T08:58:22.039Z,98911.09
2019-03-09T09:03:43.147Z,98907.12
2019-03-09T09:09:05.750Z,98911.02
2019-03-09T09:14:26.716Z,98886.60
2019-03-09T09:19:48.731Z,98886.60
2019-03-09T09:25:10.324Z,98901.29
2019-03-09T09:30:31.834Z,98901.29
2019-03-09T09:35:53.024Z,98916.03
2019-03-09T09:41:14.177Z,98885.00
2019-03-09T09:46:35.467Z,98910.36
2019-03-09T09:51:56.463Z,98893.05
2019-03-09T09:57:18.734Z,98880.09
2019-03-09T10:02:40.343Z,98882.36
2019-03-09T10:08:01.717Z,98886.37
2019-03-09T10:13:22.900Z,98857.51
2019-03-09T10:18:43.875Z,98888.39
2019-03-09T10:24:05.274Z,98876.64
2019-03-09T10:29:26.301Z,98885.60
2019-03-09T10:34:47.624Z,98864.69
2019-03-09T10:40:09.501Z,98854.43
2019-03-09T10:45:30.564Z,98852.59
2019-03-09T10:50:52.045Z,98844.70
2019-03-09T10:56:13.246Z,98849.59
2019-03-09T11:01:34.640Z,98825.25
2019-03-09T11:06:55.563Z,98830.32
2019-03-09T11:12:17.076Z,98811.33
2019-03-09T11:17:38.457Z,98803.22
2019-03-09T11:22:59.863Z,98794.06
2019-03-09T11:28:21.643Z,98788.97
2019-03-09T11:33:42.635Z,98773.39
2019-03-09T11:39:06.168Z,98754.36
2019-03-09T11:44:27.404Z,98752.89
2019-03-09T11:49:48.648Z,98738.27
2019-03-09T11:55:13.632Z,98718.88
2019-03-09T12:00:35.711Z,98717.21
2019-03-09T12:05:56.890Z,98703.89
2019-03-09T12:11:18.583Z,98695.38
2019-03-09T12:16:39.996Z,98684.31
2019-03-09T12:22:01.360Z,98676.75
2019-03-09T12:27:22.574Z,98666.59
2019-03-09T12:32:44.689Z,98663.92
2019-03-09T12:38:05.753Z,98661.53
2019-03-09T12:43:28.155Z,98649.53
2019-03-09T12:48:49.459Z,98642.02
2019-03-09T12:54:10.757Z,98627.66
2019-03-09T12:59:32.681Z,98626.53
2019-03-09T13:04:55.444Z,98625.56
2019-03-09T13:10:19.974Z,98626.53
2019-03-09T13:15:41.292Z,98622.97
2019-03-09T13:21:03.086Z,98618.58
2019-03-09T13:26:37.777Z,98612.67
2019-03-09T13:32:35.885Z,98610.20
2019-03-09T13:44:12.018Z,98601.08
2019-03-09T13:49:58.560Z,98593.73
2019-03-09T13:55:23.940Z,98594.59
2019-03-09T14:00:47.097Z,98595.08
2019-03-09T14:12:00.522Z,98580.80
2019-03-09T14:17:21.619Z,98588.47
2019-03-09T14:22:42.750Z,98577.45
2019-03-09T14:28:05.082Z,98565.19
2019-03-09T14:33:26.247Z,98567.22
2019-03-09T14:38:47.683Z,98553.91
2019-03-09T14:44:09.275Z,98556.53
2019-03-09T14:49:30.392Z,98550.48
2019-03-09T14:54:52.028Z,98550.33
2019-03-09T15:00:16.696Z,98565.92
2019-03-09T15:05:38.263Z,98569.17
2019-03-09T15:10:59.865Z,98550.95
2019-03-09T15:16:20.848Z,98552.37
2019-03-09T15:21:42.623Z,98556.98
2019-03-09T15:27:03.808Z,98561.55
2019-03-09T15:32:25.103Z,98571.19
2019-03-09T15:37:46.418Z,98566.59
2019-03-09T15:43:09.127Z,98586.48
2019-03-09T15:48:32.764Z,98570.55
2019-03-09T15:53:53.761Z,98570.55
2019-03-09T15:59:15.065Z,98580.48
2019-03-09T16:04:36.318Z,98605.14
2019-03-09T16:09:57.474Z,98605.14
2019-03-09T16:15:18.836Z,98609.75
2019-03-09T16:20:39.863Z,98616.66
2019-03-09T16:26:01.681Z,98617.05
2019-03-09T16:31:23.682Z,98615.03
2019-03-09T16:36:44.934Z,98630.98
2019-03-09T16:42:06.169Z,98619.73
2019-03-09T16:47:27.461Z,98623.09
2019-03-09T16:52:48.639Z,98626.14
2019-03-09T16:58:09.807Z,98637.16
2019-03-09T17:03:31.038Z,98626.77
2019-03-09T17:08:52.281Z,98613.20
2019-03-09T17:14:13.333Z,98617.08
2019-03-09T17:19:37.056Z,98603.54
2019-03-09T17:24:58.698Z,98602.88
2019-03-09T17:30:22.149Z,98620.33
2019-03-09T17:35:43.050Z,98609.39
2019-03-09T17:41:05.634Z,98604.81
2019-03-09T17:46:27.195Z,98621.11
2019-03-09T17:51:48.147Z,98626.38
2019-03-09T17:57:09.526Z,98632.34
2019-03-09T18:02:36.647Z,98641.80
2019-03-09T18:07:58.105Z,98651.68
2019-03-09T18:13:20.982Z,98646.00
2019-03-09T18:18:42.272Z,98651.65
2019-03-09T18:24:03.625Z,98647.71
2019-03-09T18:29:24.836Z,98651.00
2019-03-09T18:34:46.091Z,98652.86
2019-03-09T18:40:08.279Z,98647.59
2019-03-09T18:45:29.883Z,98641.59
2019-03-09T18:50:52.081Z,98652.12
2019-03-09T18:56:12.987Z,98651.23
2019-03-09T19:01:34.316Z,98651.63
2019-03-09T19:06:55.824Z,98644.51
2019-03-09T19:12:16.883Z,98647.38
2019-03-09T19:17:38.344Z,98641.05
2019-03-09T19:22:59.729Z,98643.38
2019-03-09T19:28:21.009Z,98633.45
2019-03-09T19:33:42.361Z,98628.91
2019-03-09T19:39:04.882Z,98637.57
2019-03-09T19:44:26.212Z,98637.57
2019-03-09T19:49:47.438Z,98638.06
2019-03-09T19:55:08.845Z,98638.02
2019-03-09T20:00:30.435Z,98630.86
2019-03-09T20:05:51.860Z,98634.41
2019-03-09T20:11:12.781Z,98631.92
2019-03-09T20:16:34.058Z,98636.13
2019-03-09T20:21:55.316Z,98634.79
2019-03-09T20:27:16.582Z,98640.80
2019-03-09T20:32:37.958Z,98646.32
2019-03-09T20:37:58.968Z,98641.00
2019-03-09T20:43:20.142Z,98643.45
2019-03-09T20:48:41.395Z,98646.78
2019-03-09T20:54:04.338Z,98667.19
2019-03-09T20:59:25.675Z,98654.42
2019-03-09T21:04:48.663Z,98652.61
2019-03-09T21:10:10.686Z,98642.25
2019-03-09T21:15:32.422Z,98638.92
2019-03-09T21:20:54.382Z,98629.06
2019-03-09T21:26:15.592Z,98627.88
2019-03-09T21:31:37.744Z,98619.86
2019-03-09T21:36:58.956Z,98628.97
2019-03-09T21:42:20.243Z,98590.56
2019-03-09T21:47:41.721Z,98587.61
2019-03-09T21:53:02.914Z,98578.52
2019-03-09T21:58:23.850Z,98567.82
2019-03-09T22:03:45.206Z,98573.40
2019-03-09T22:09:06.533Z,98563.32
2019-03-09T22:14:27.560Z,98566.75
2019-03-09T22:19:48.977Z,98552.34
2019-03-09T22:25:10.434Z,98556.48
2019-03-09T22:30:31.475Z,98548.62
2019-03-09T22:35:52.689Z,98554.19
2019-03-09T22:41:14.113Z,98532.86
2019-03-09T22:46:35.039Z,98528.02
2019-03-09T22:51:56.278Z,98531.02
2019-03-09T22:57:17.386Z,98539.53
2019-03-09T23:02:38.736Z,98538.95
2019-03-09T23:07:59.762Z,98536.23
2019-03-09T23:13:22.075Z,98536.78
2019-03-09T23:18:43.429Z,98552.86
2019-03-09T23:24:04.621Z,98554.16
2019-03-09T23:29:25.727Z,98563.03
2019-03-09T23:34:46.978Z,98562.70
2019-03-09T23:40:09.114Z,98566.15
2019-03-09T23:45:30.480Z,98563.05
2019-03-09T23:50:51.702Z,98571.30
2019-03-09T23:56:13.787Z,98578.94
